createdAt,value
2023-01-17T04:25:09.967Z,9.18
2023-01-17T04:27:37.368Z,7.30
2023-01-17T04:30:04.772Z,7.22
2023-01-17T04:32:31.797Z,7.50
2023-01-17T04:35:05.358Z,5.93
2023-01-17T04:37:32.323Z,6.75
2023-01-17T04:39:59.394Z,7.40
2023-01-17T04:42:26.989Z,7.38
2023-01-17T04:44:53.949Z,7.45
2023-01-17T04:47:20.903Z,8.37
2023-01-17T04:49:48.134Z,8.80
2023-01-17T04:52:18.802Z,8.90
2023-01-17T04:54:48.590Z,8.13
2023-01-17T18:41:36.872Z,14.53
2023-01-17T18:44:06.216Z,15.50
2023-01-17T18:46:33.878Z,14.63
2023-01-17T18:49:01.193Z,15.40
2023-01-17T18:51:32.141Z,15.57
2023-01-17T18:54:19.422Z,15.70
2023-01-17T18:56:46.747Z,15.23
2023-01-17T18:59:18.533Z,16.50
2023-01-17T19:01:46.195Z,14.88
2023-01-17T19:04:16.538Z,14.57
2023-01-17T19:06:46.373Z,15.52
2023-01-17T19:09:15.532Z,16.17
2023-01-17T19:11:45.195Z,16.92
2023-01-17T19:14:13.241Z,16.42
2023-01-17T19:16:42.078Z,15.00
2023-01-17T19:19:13.260Z,16.48
2023-01-17T19:21:40.374Z,15.37
2023-01-17T19:24:11.082Z,14.35
2023-01-17T19:26:38.324Z,15.85
2023-01-17T19:29:06.948Z,14.32
2023-01-17T19:31:39.802Z,17.65
2023-01-17T19:34:06.823Z,15.00
2023-01-17T19:36:36.541Z,14.85
2023-01-17T19:39:06.826Z,15.48
2023-01-17T19:41:36.119Z,16.40
2023-01-17T19:44:06.506Z,15.02
2023-01-17T19:46:34.199Z,15.67
2023-01-17T19:49:02.093Z,15.93
2023-01-17T19:51:29.630Z,16.77
2023-01-17T19:53:59.320Z,16.42
2023-01-17T19:56:27.635Z,16.85
2023-01-17T19:58:54.872Z,14.13
2023-01-17T20:01:25.388Z,14.60
2023-01-17T20:03:53.053Z,13.63
2023-01-17T20:06:24.993Z,15.85
2023-01-17T20:08:52.096Z,13.93
2023-01-17T20:11:21.510Z,16.43
2023-01-17T20:13:51.732Z,14.70
2023-01-17T20:16:19.020Z,14.27
2023-01-17T20:18:46.933Z,14.50
2023-01-17T20:21:18.172Z,14.95
2023-01-17T20:23:51.852Z,12.27
2023-01-17T20:26:25.752Z,15.18
2023-01-17T20:28:53.562Z,14.20
2023-01-17T20:31:25.733Z,15.25
2023-01-17T20:33:54.881Z,13.02
2023-01-17T20:36:24.602Z,13.83
2023-01-17T20:38:53.309Z,13.57
2023-01-17T20:41:25.648Z,13.85
2023-01-17T20:43:56.896Z,14.10
2023-01-17T20:46:26.752Z,13.63
2023-01-17T20:48:56.348Z,12.23
2023-01-17T20:51:26.223Z,13.15
2023-01-17T20:53:56.571Z,13.95
2023-01-17T20:56:24.587Z,13.20
2023-01-17T20:58:52.985Z,13.10
2023-01-17T21:01:21.559Z,14.27
2023-01-17T21:03:52.580Z,12.15
2023-01-17T21:06:22.135Z,13.20
2023-01-17T21:08:49.907Z,11.90
2023-01-17T21:11:23.051Z,12.77
2023-01-17T21:13:51.362Z,13.17
2023-01-17T21:16:21.372Z,13.25
2023-01-17T21:18:50.206Z,14.43
2023-01-17T21:21:22.942Z,12.15
2023-01-17T21:23:52.465Z,12.05
2023-01-17T21:26:21.525Z,12.80
2023-01-17T21:28:51.067Z,13.98
2023-01-17T21:31:29.908Z,12.85
2023-01-17T21:34:17.385Z,12.85
2023-01-17T21:36:44.642Z,13.40
2023-01-17T21:39:17.975Z,12.57
2023-01-17T21:41:48.147Z,13.63
2023-01-17T21:44:19.478Z,13.70
2023-01-17T21:46:47.501Z,14.77
2023-01-17T21:49:15.494Z,14.30
2023-01-17T21:51:55.614Z,15.93
2023-01-17T21:54:44.398Z,14.13
2023-01-17T21:57:35.233Z,15.27
2023-01-17T22:00:03.701Z,14.30
2023-01-17T22:02:30.788Z,15.43
2023-01-17T22:04:58.928Z,14.57
2023-01-17T22:07:29.291Z,17.65
2023-01-17T22:09:57.124Z,12.18
2023-01-17T22:12:24.365Z,11.68
2023-01-17T22:14:51.664Z,9.55
2023-01-17T22:17:18.730Z,10.13
2023-01-17T22:19:46.165Z,10.63
2023-01-17T22:22:13.782Z,9.32
2023-01-17T22:24:40.999Z,7.03
2023-01-17T22:27:10.054Z,6.15
2023-01-17T22:29:37.956Z,5.57
2023-01-17T22:32:05.286Z,4.38
2023-01-17T22:34:32.232Z,3.60
2023-01-17T22:36:59.593Z,3.85
2023-01-17T22:39:26.613Z,3.65
2023-01-17T22:41:53.971Z,4.43
2023-01-17T22:44:21.114Z,4.60
2023-01-17T22:46:49.123Z,6.18
2023-01-17T22:49:17.462Z,6.18
2023-01-17T22:51:45.144Z,5.60
2023-01-17T22:54:12.691Z,7.10
2023-01-17T22:56:39.711Z,6.90
2023-01-17T22:59:11.840Z,7.82
2023-01-17T23:01:43.086Z,7.18
2023-01-17T23:04:14.148Z,6.95
2023-01-17T23:06:41.846Z,4.03
2023-01-17T23:09:14.240Z,3.78
2023-01-17T23:11:53.094Z,2.92
2023-01-17T23:14:24.526Z,3.33
2023-01-17T23:17:18.812Z,2.65
2023-01-17T23:19:52.841Z,3.30
2023-01-17T23:22:28.515Z,2.72
2023-01-17T23:25:11.198Z,3.42
2023-01-17T23:28:00.027Z,2.92
2023-01-17T23:30:40.418Z,3.65
2023-01-17T23:33:09.868Z,4.20
2023-01-17T23:35:41.671Z,3.17
2023-01-17T23:38:26.286Z,3.90
2023-01-17T23:41:18.184Z,3.35
2023-01-17T23:43:51.002Z,3.25
2023-01-17T23:46:18.097Z,3.53
2023-01-17T23:48:45.170Z,3.83
2023-01-17T23:51:12.276Z,3.60
2023-01-17T23:53:40.088Z,4.38
2023-01-17T23:56:22.458Z,9.38
2023-01-17T23:58:49.772Z,4.77
